createdAt,value
2018-03-21T00:00:33.971Z,2.42
2018-03-21T00:03:00.940Z,2.05
2018-03-21T00:05:27.176Z,2.47
2018-03-21T00:07:53.358Z,2.15
2018-03-21T00:10:19.583Z,2.53
2018-03-21T00:12:45.826Z,2.35
2018-03-21T00:15:12.770Z,2.25
2018-03-21T00:17:40.642Z,2.10
2018-03-21T00:20:07.582Z,2.20
2018-03-21T00:22:34.575Z,2.50
2018-03-21T00:25:00.756Z,2.15
2018-03-21T00:27:28.378Z,2.08
2018-03-21T00:29:54.580Z,2.03
2018-03-21T00:32:20.782Z,2.05
2018-03-21T00:34:47.684Z,2.05
2018-03-21T00:37:14.638Z,1.95
2018-03-21T00:39:41.571Z,1.95
2018-03-21T00:42:08.689Z,2.47
2018-03-21T00:44:34.890Z,2.10
2018-03-21T00:47:01.889Z,2.05
2018-03-21T00:49:28.120Z,2.53
2018-03-21T00:51:54.328Z,1.75
2018-03-21T00:54:20.519Z,2.33
2018-03-21T00:56:47.454Z,1.75
2018-03-21T00:59:13.678Z,2.25
2018-03-21T01:01:39.875Z,2.25
2018-03-21T01:04:06.087Z,2.55
2018-03-21T01:06:32.235Z,2.30
2018-03-21T01:08:58.459Z,1.85
2018-03-21T01:11:24.700Z,2.58
2018-03-21T01:13:50.903Z,2.30
2018-03-21T01:16:18.018Z,2.30
2018-03-21T01:18:44.935Z,2.30
2018-03-21T01:21:11.158Z,2.00
2018-03-21T01:23:38.323Z,3.47
2018-03-21T01:26:04.530Z,2.42
2018-03-21T01:28:30.742Z,2.55
2018-03-21T01:30:56.948Z,2.67
2018-03-21T02:49:20.156Z,2.37
2018-03-21T02:51:46.351Z,2.55
2018-03-21T02:54:13.306Z,2.20
2018-03-21T02:56:39.473Z,2.33
2018-03-21T02:59:05.683Z,2.20
2018-03-21T03:01:31.887Z,2.20
2018-03-21T03:03:58.826Z,2.33
2018-03-21T03:06:26.478Z,1.95
2018-03-21T03:08:53.471Z,2.40
2018-03-21T03:11:19.678Z,2.17
2018-03-21T03:13:46.741Z,2.30
2018-03-21T03:16:12.985Z,2.20
2018-03-21T03:18:39.181Z,2.62
2018-03-21T03:21:06.184Z,2.10
2018-03-21T03:23:32.384Z,2.47
2018-03-21T03:25:58.566Z,2.50
2018-03-21T03:28:24.799Z,2.08
2018-03-21T03:30:51.028Z,2.50
2018-03-21T03:33:18.103Z,2.25
2018-03-21T03:35:44.289Z,2.60
2018-03-21T03:38:10.455Z,1.90
2018-03-21T03:40:37.432Z,2.20
2018-03-21T03:43:03.641Z,2.30
2018-03-21T03:45:29.812Z,2.20
2018-03-21T03:47:55.997Z,2.90
2018-03-21T03:50:22.240Z,2.65
2018-03-21T03:52:48.406Z,2.28
2018-03-21T03:55:14.642Z,2.37
2018-03-21T03:57:40.894Z,2.28
2018-03-21T04:00:07.904Z,2.60
2018-03-21T04:02:34.081Z,2.53
2018-03-21T04:05:00.292Z,2.30
2018-03-21T04:07:27.212Z,2.10
2018-03-21T04:09:53.421Z,2.40
2018-03-21T04:12:19.629Z,2.47
2018-03-21T04:14:45.866Z,3.12
2018-03-21T04:17:12.062Z,2.37
2018-03-21T04:19:39.010Z,2.10
2018-03-21T04:22:05.959Z,2.17
2018-03-21T04:24:32.168Z,2.50
2018-03-21T04:27:00.254Z,2.30
2018-03-21T04:29:27.192Z,2.90
2018-03-21T04:31:54.151Z,3.30
2018-03-21T04:34:20.377Z,3.30
2018-03-21T04:36:47.292Z,2.50
2018-03-21T04:39:13.462Z,2.65
2018-03-21T04:41:39.736Z,2.85
2018-03-21T04:53:52.003Z,2.50
2018-03-21T04:56:18.213Z,2.55
2018-03-21T04:58:45.078Z,2.60
2018-03-21T05:01:11.280Z,2.75
2018-03-21T05:03:37.456Z,2.47
2018-03-21T05:06:03.708Z,4.20
2018-03-21T05:08:31.380Z,3.05
2018-03-21T05:10:57.589Z,2.53
2018-03-21T05:13:24.166Z,2.33
2018-03-21T05:15:50.346Z,2.12
2018-03-21T05:18:16.604Z,2.03
2018-03-21T05:20:43.258Z,2.55
2018-03-21T05:23:11.363Z,2.90
2018-03-21T05:25:37.539Z,2.92
2018-03-21T05:28:03.771Z,3.75
2018-03-21T05:30:30.899Z,2.75
2018-03-21T05:32:57.845Z,2.70
2018-03-21T05:35:24.843Z,3.20
2018-03-21T05:37:51.935Z,3.08
2018-03-21T05:40:18.775Z,2.40
2018-03-21T05:42:45.492Z,2.75
2018-03-21T05:45:12.504Z,3.10
2018-03-21T05:47:38.714Z,2.78
2018-03-21T05:50:04.927Z,2.85
2018-03-21T05:52:32.802Z,2.58
2018-03-21T05:55:00.435Z,3.60
2018-03-21T05:57:27.029Z,2.65
2018-03-21T05:59:53.220Z,2.95
2018-03-21T06:02:19.451Z,2.60
2018-03-21T06:04:46.449Z,3.70
2018-03-21T06:07:13.593Z,2.80
2018-03-21T06:09:39.785Z,2.72
2018-03-21T06:12:06.392Z,2.55
2018-03-21T06:14:33.443Z,2.53
2018-03-21T06:16:59.637Z,3.65
2018-03-21T06:19:26.511Z,3.40
2018-03-21T06:21:56.675Z,4.10
2018-03-21T06:24:22.847Z,3.60
2018-03-21T06:26:51.476Z,3.42
2018-03-21T06:29:18.560Z,2.90
2018-03-21T06:31:45.485Z,3.60
2018-03-21T06:34:11.763Z,2.80
2018-03-21T06:36:37.940Z,2.90
2018-03-21T06:39:04.883Z,2.70
2018-03-21T06:41:32.690Z,3.00
2018-03-21T06:43:58.871Z,2.70
2018-03-21T06:46:25.816Z,2.80
2018-03-21T06:48:52.769Z,2.70
2018-03-21T06:51:20.683Z,3.47
2018-03-21T06:53:46.876Z,3.10
2018-03-21T07:05:58.113Z,2.80
2018-03-21T07:08:24.405Z,2.97
2018-03-21T07:10:50.795Z,2.50
2018-03-21T07:13:17.161Z,3.20
2018-03-21T07:15:56.770Z,2.73
2018-03-21T07:18:23.958Z,2.03
2018-03-21T07:20:50.222Z,2.13
2018-03-21T07:23:17.262Z,3.10
2018-03-21T07:25:43.463Z,2.93
2018-03-21T07:28:10.711Z,2.33
2018-03-21T07:30:36.954Z,2.60
2018-03-21T07:33:03.213Z,2.50
2018-03-21T07:35:30.183Z,2.53
2018-03-21T07:37:56.398Z,2.30
2018-03-21T07:40:23.501Z,2.60
2018-03-21T07:42:49.903Z,2.70
2018-03-21T07:45:17.650Z,2.70
2018-03-21T07:47:43.876Z,2.67
2018-03-21T07:50:11.585Z,2.50
2018-03-21T07:52:37.817Z,2.90
2018-03-21T07:55:05.156Z,2.50
2018-03-21T07:57:31.502Z,2.50
2018-03-21T07:59:58.483Z,2.57
2018-03-21T08:02:24.767Z,2.50
2018-03-21T08:04:51.016Z,2.17
2018-03-21T08:07:17.266Z,2.67
2018-03-21T08:09:43.456Z,3.27
2018-03-21T08:12:10.231Z,3.00
2018-03-21T08:14:36.443Z,2.87
2018-03-21T08:17:02.733Z,4.37
2018-03-21T08:19:28.961Z,2.23
2018-03-21T08:21:55.585Z,2.33
2018-03-21T08:24:23.996Z,2.03
2018-03-21T08:26:50.234Z,2.30
2018-03-21T08:29:17.518Z,1.80
2018-03-21T08:31:47.565Z,2.57
2018-03-21T08:34:14.794Z,4.70
2018-03-21T08:36:40.991Z,2.87
2018-03-21T08:39:07.232Z,2.40
2018-03-21T08:41:33.450Z,2.60
2018-03-21T08:43:59.680Z,1.90
2018-03-21T08:46:25.913Z,1.93
2018-03-21T08:48:52.148Z,2.07
2018-03-21T08:51:18.440Z,2.50
2018-03-21T08:53:45.637Z,2.10
2018-03-21T08:56:12.502Z,3.20
2018-03-21T08:58:38.711Z,3.07
2018-03-21T09:01:06.183Z,2.50
2018-03-21T09:03:32.370Z,2.03
2018-03-21T09:05:58.546Z,2.60
2018-03-21T09:08:24.774Z,1.60
2018-03-21T09:10:51.001Z,1.80
2018-03-21T09:13:17.287Z,1.57
2018-03-21T09:15:43.458Z,2.17
2018-03-21T09:18:09.646Z,2.40
2018-03-21T09:20:35.962Z,2.40
2018-03-21T09:23:02.514Z,1.77
2018-03-21T09:25:28.899Z,2.53
2018-03-21T09:27:55.936Z,2.30
2018-03-21T09:30:22.127Z,2.20
2018-03-21T09:32:48.533Z,2.33
2018-03-21T09:35:14.869Z,2.33
2018-03-21T09:37:41.893Z,2.47
2018-03-21T09:40:08.882Z,2.33
2018-03-21T09:42:35.197Z,2.80
2018-03-21T09:45:02.354Z,2.37
2018-03-21T09:47:28.618Z,2.03
2018-03-21T09:49:54.936Z,2.03
2018-03-21T09:52:21.212Z,2.90
2018-03-21T09:54:48.308Z,2.97
2018-03-21T09:57:14.565Z,2.87
2018-03-21T09:59:40.900Z,2.50
2018-03-21T10:11:52.306Z,3.10
2018-03-21T10:14:19.449Z,3.23
2018-03-21T10:16:45.611Z,3.33
2018-03-21T10:19:11.931Z,3.60
2018-03-21T10:21:38.163Z,3.17
2018-03-21T10:24:04.405Z,2.83
2018-03-21T10:26:30.633Z,3.07
2018-03-21T10:28:57.647Z,3.13
2018-03-21T10:31:23.853Z,3.20
2018-03-21T10:33:50.825Z,2.97
2018-03-21T10:36:17.071Z,3.10
2018-03-21T10:38:43.285Z,2.90
2018-03-21T10:41:09.527Z,3.23
2018-03-21T10:43:35.782Z,3.17
2018-03-21T10:46:01.976Z,3.33
2018-03-21T10:48:28.212Z,2.80
2018-03-21T10:50:54.423Z,2.90
2018-03-21T10:53:20.622Z,2.80
2018-03-21T10:55:46.778Z,2.23
2018-03-21T10:58:13.003Z,2.33
2018-03-21T11:00:39.179Z,2.73
2018-03-21T11:03:05.485Z,2.80
2018-03-21T11:05:31.677Z,2.70
2018-03-21T11:07:58.652Z,2.00
2018-03-21T11:10:24.917Z,3.57
2018-03-21T11:12:51.172Z,2.63
2018-03-21T11:15:18.259Z,2.27
2018-03-21T11:17:44.480Z,2.60
2018-03-21T11:20:10.710Z,2.43
2018-03-21T11:22:36.947Z,2.60
2018-03-21T11:25:03.192Z,3.07
2018-03-21T11:27:29.495Z,2.60
2018-03-21T11:29:55.714Z,3.40
2018-03-21T11:32:21.912Z,2.80
2018-03-21T11:34:48.387Z,2.80
2018-03-21T11:37:14.572Z,2.80
2018-03-21T11:39:41.002Z,3.20
2018-03-21T11:42:07.205Z,3.10
2018-03-21T11:44:33.424Z,2.77
2018-03-21T11:46:59.684Z,2.90
2018-03-21T11:49:25.868Z,2.63
2018-03-21T11:51:52.105Z,3.10
2018-03-21T11:54:18.363Z,2.83
2018-03-21T11:56:44.670Z,2.90
2018-03-21T11:59:10.929Z,2.97
2018-03-21T12:01:37.235Z,3.40
2018-03-21T12:04:03.563Z,2.73
2018-03-21T12:06:29.769Z,2.43
2018-03-21T12:08:55.980Z,3.03
2018-03-21T12:11:22.936Z,2.37
2018-03-21T12:13:49.872Z,3.23
2018-03-21T12:18:59.481Z,3.30
2018-03-21T12:21:25.692Z,3.33
2018-03-21T12:23:51.963Z,2.60
2018-03-21T12:26:18.289Z,2.47
2018-03-21T12:28:44.523Z,2.80
2018-03-21T12:31:11.429Z,2.27
2018-03-21T12:33:37.647Z,2.80
2018-03-21T12:36:03.883Z,3.30
2018-03-21T12:38:30.137Z,2.93
2018-03-21T12:40:56.323Z,2.70
2018-03-21T12:43:23.383Z,2.00
2018-03-21T12:45:49.646Z,2.93
2018-03-21T12:48:15.879Z,3.60
2018-03-21T12:50:42.253Z,2.67
2018-03-21T12:53:10.175Z,2.20
2018-03-21T12:55:36.402Z,1.80
2018-03-21T12:58:02.671Z,2.47
2018-03-21T13:00:29.594Z,2.63
2018-03-21T13:02:55.823Z,1.97
2018-03-21T13:05:22.076Z,1.50
2018-03-21T13:07:48.313Z,2.17
2018-03-21T13:10:15.549Z,1.97
2018-03-21T13:12:41.920Z,2.03
2018-03-21T13:15:08.138Z,2.20
2018-03-21T13:17:35.104Z,1.60
2018-03-21T13:20:01.499Z,2.53
2018-03-21T13:22:28.510Z,2.07
2018-03-21T13:24:54.696Z,2.30
2018-03-21T13:27:21.620Z,1.90
2018-03-21T13:29:48.585Z,1.80
2018-03-21T13:32:15.513Z,1.60
2018-03-21T13:34:42.476Z,1.73
2018-03-21T13:37:09.413Z,2.17
2018-03-21T13:39:36.643Z,2.60
2018-03-21T13:42:02.836Z,2.57
2018-03-21T13:44:29.041Z,2.47
2018-03-21T13:46:55.249Z,2.73
2018-03-21T13:49:22.178Z,2.70
2018-03-21T13:51:48.422Z,1.90
2018-03-21T13:54:15.373Z,1.97
2018-03-21T13:56:42.485Z,2.57
2018-03-21T13:59:08.723Z,2.47
2018-03-21T14:01:34.894Z,2.10
2018-03-21T14:04:01.085Z,1.83
2018-03-21T14:06:27.326Z,2.37
2018-03-21T14:08:54.242Z,1.73
2018-03-21T14:11:20.534Z,2.20
2018-03-21T14:13:46.756Z,2.40
2018-03-21T14:16:12.980Z,1.93
2018-03-21T14:18:39.222Z,2.13
2018-03-21T14:21:05.460Z,1.97
2018-03-21T14:23:31.699Z,1.83
2018-03-21T14:25:57.920Z,1.50
2018-03-21T14:28:24.528Z,2.70
2018-03-21T14:30:51.871Z,2.77
2018-03-21T14:33:19.181Z,2.53
2018-03-21T14:35:45.390Z,2.10
2018-03-21T14:38:11.648Z,2.63
2018-03-21T14:40:37.935Z,3.43
2018-03-21T14:43:04.176Z,2.60
2018-03-21T14:45:30.403Z,2.70
2018-03-21T14:47:56.653Z,2.30
2018-03-21T14:50:22.855Z,1.97
2018-03-21T14:52:49.051Z,2.30
2018-03-21T14:55:15.326Z,2.40
2018-03-21T14:57:41.577Z,2.40
2018-03-21T15:00:08.143Z,3.07
2018-03-21T15:02:34.336Z,2.50
2018-03-21T15:05:00.575Z,2.60
2018-03-21T15:07:26.790Z,2.13
2018-03-21T15:09:53.005Z,2.63
2018-03-21T15:12:19.232Z,2.30
2018-03-21T15:14:45.452Z,2.30
2018-03-21T15:17:11.747Z,2.20
2018-03-21T15:19:38.834Z,2.10
2018-03-21T15:22:05.044Z,2.40
2018-03-21T15:24:32.027Z,2.53
2018-03-21T15:26:58.212Z,2.60
2018-03-21T15:29:25.277Z,2.20
2018-03-21T15:31:52.582Z,2.97
2018-03-21T15:34:19.257Z,2.77
2018-03-21T15:36:46.219Z,3.20
2018-03-21T15:39:13.203Z,2.70
2018-03-21T15:41:39.453Z,3.00
2018-03-21T15:44:05.662Z,3.53
2018-03-21T15:46:31.889Z,3.53
2018-03-21T15:48:58.124Z,3.30
2018-03-21T15:51:24.437Z,3.10
2018-03-21T15:53:51.375Z,2.90
2018-03-21T15:56:17.663Z,2.20
2018-03-21T15:58:43.834Z,2.80
2018-03-21T16:01:10.962Z,3.10
2018-03-21T16:03:37.976Z,3.07
2018-03-21T16:06:05.673Z,2.90
2018-03-21T16:08:32.596Z,3.00
2018-03-21T16:10:58.777Z,3.23
2018-03-21T16:13:25.016Z,3.10
2018-03-21T16:15:51.251Z,2.77
2018-03-21T16:18:17.493Z,3.13
2018-03-21T16:20:43.705Z,3.70
2018-03-21T16:23:09.926Z,3.43
2018-03-21T16:25:36.172Z,4.30
2018-03-21T16:28:02.451Z,4.77
2018-03-21T16:30:29.405Z,3.87
2018-03-21T16:32:55.695Z,2.80
2018-03-21T16:35:21.916Z,3.57
2018-03-21T16:37:48.149Z,4.37
2018-03-21T16:40:14.368Z,3.80
2018-03-21T16:42:40.625Z,3.87
2018-03-21T16:45:06.878Z,4.63
2018-03-21T16:47:33.160Z,3.50
2018-03-21T16:49:59.370Z,4.60
2018-03-21T16:52:25.625Z,4.50
2018-03-21T16:54:51.884Z,4.50
2018-03-21T16:57:18.864Z,4.40
2018-03-21T16:59:45.161Z,4.23
2018-03-21T17:02:12.104Z,4.37
2018-03-21T17:14:24.095Z,6.07
2018-03-21T17:16:50.300Z,5.73
2018-03-21T17:19:17.275Z,5.43
2018-03-21T17:21:43.495Z,6.70
2018-03-21T17:24:09.828Z,6.27
2018-03-21T17:26:36.007Z,7.00
2018-03-21T17:29:03.175Z,6.93
2018-03-21T17:31:29.382Z,7.33
2018-03-21T17:33:56.156Z,7.90
2018-03-21T17:36:23.206Z,7.67
2018-03-21T17:38:50.166Z,9.00
2018-03-21T17:41:16.394Z,8.37
2018-03-21T17:43:42.618Z,8.97
2018-03-21T17:46:08.839Z,8.83
2018-03-21T17:48:35.803Z,10.87
2018-03-21T17:51:03.004Z,10.37
2018-03-21T17:53:29.208Z,10.00
2018-03-21T17:55:56.563Z,10.10
2018-03-21T17:58:22.857Z,8.53
2018-03-21T18:00:49.889Z,9.30
2018-03-21T18:03:16.544Z,10.37
2018-03-21T18:05:42.756Z,9.90
2018-03-21T18:08:09.801Z,9.77
2018-03-21T18:10:35.986Z,8.80
2018-03-21T18:13:02.237Z,9.27
2018-03-21T18:15:28.451Z,9.83
2018-03-21T18:17:54.656Z,12.07
2018-03-21T18:20:21.044Z,10.13
2018-03-21T18:22:47.334Z,12.10
2018-03-21T18:25:16.187Z,10.77
2018-03-21T18:27:42.419Z,9.80
2018-03-21T18:30:09.386Z,12.00
2018-03-21T18:32:36.437Z,11.40
2018-03-21T18:35:02.679Z,9.40
2018-03-21T18:37:28.893Z,9.90
2018-03-21T18:39:55.210Z,11.37
2018-03-21T18:42:22.462Z,11.77
2018-03-21T18:44:50.240Z,10.83
2018-03-21T18:47:16.519Z,12.00
2018-03-21T18:49:42.769Z,11.07
2018-03-21T18:52:09.801Z,11.77
2018-03-21T18:54:36.196Z,9.50
2018-03-21T18:57:02.481Z,11.20
2018-03-21T18:59:28.824Z,11.77
2018-03-21T19:01:55.069Z,12.20
2018-03-21T19:04:21.295Z,10.07
2018-03-21T19:06:47.488Z,10.57
2018-03-21T19:09:14.945Z,11.93
2018-03-21T19:11:41.182Z,11.67
2018-03-21T19:14:08.140Z,11.57
2018-03-21T19:16:35.212Z,13.10
2018-03-21T19:19:01.418Z,11.43
2018-03-21T19:21:28.504Z,13.00
2018-03-21T19:23:54.703Z,12.27
2018-03-21T19:26:22.635Z,12.17
2018-03-21T19:28:48.904Z,12.63
2018-03-21T19:31:15.564Z,12.90
2018-03-21T19:33:41.846Z,11.90
2018-03-21T19:36:08.488Z,10.63
2018-03-21T19:38:34.800Z,11.73
2018-03-21T19:41:01.045Z,12.30
2018-03-21T19:43:27.334Z,11.80
2018-03-21T19:45:53.635Z,13.13
2018-03-21T19:48:20.186Z,12.33
2018-03-21T19:50:46.420Z,11.63
2018-03-21T19:53:16.541Z,12.47
2018-03-21T19:55:43.354Z,13.00
2018-03-21T19:58:10.088Z,13.70
2018-03-21T20:00:37.030Z,12.60
2018-03-21T20:03:03.262Z,15.00
2018-03-21T20:05:30.315Z,10.70
2018-03-21T20:07:56.562Z,11.47
2018-03-21T20:10:22.781Z,11.93
2018-03-21T20:12:49.782Z,12.10
2018-03-21T20:15:16.000Z,10.60
2018-03-21T20:17:42.916Z,11.18
2018-03-21T20:20:09.153Z,11.47
2018-03-21T20:22:35.953Z,12.00
2018-03-21T20:25:02.942Z,11.10
2018-03-21T20:27:29.282Z,13.40
2018-03-21T20:29:56.141Z,11.32
2018-03-21T20:32:22.392Z,10.95
2018-03-21T20:34:48.680Z,12.45
2018-03-21T20:37:15.270Z,11.63
2018-03-21T20:39:41.724Z,11.97
2018-03-21T20:42:08.001Z,11.50
2018-03-21T20:44:34.280Z,10.93
2018-03-21T20:47:01.233Z,13.07
2018-03-21T20:49:28.198Z,11.90
2018-03-21T20:51:54.494Z,10.90
2018-03-21T20:54:21.430Z,11.40
2018-03-21T20:56:51.443Z,12.80
2018-03-21T20:59:18.474Z,12.90
2018-03-21T21:01:44.733Z,12.60
2018-03-21T21:04:11.386Z,14.57
2018-03-21T21:06:37.722Z,13.70
2018-03-21T21:09:04.356Z,13.67
2018-03-21T21:11:31.384Z,13.62
2018-03-21T21:13:57.663Z,14.90
2018-03-21T21:16:23.868Z,13.27
2018-03-21T21:18:50.493Z,14.55
2018-03-21T21:21:17.923Z,15.07
2018-03-21T21:23:44.193Z,12.43
2018-03-21T21:26:11.294Z,12.82
2018-03-21T21:28:37.566Z,11.80
2018-03-21T21:31:04.965Z,13.52
2018-03-21T21:33:31.295Z,11.77
2018-03-21T21:35:58.293Z,12.75
2018-03-21T21:38:25.271Z,13.88
2018-03-21T21:40:52.315Z,14.05
2018-03-21T21:43:18.542Z,13.50
2018-03-21T21:45:44.781Z,13.90
2018-03-21T21:48:11.133Z,14.30
2018-03-21T21:50:37.355Z,13.45
2018-03-21T21:53:03.607Z,13.48
2018-03-21T21:55:29.873Z,13.75
2018-03-21T21:57:56.837Z,14.75
2018-03-21T22:00:23.074Z,13.32
2018-03-21T22:02:49.547Z,16.10
2018-03-21T22:05:15.863Z,13.88
2018-03-21T22:07:42.069Z,15.15
2018-03-21T22:10:08.329Z,14.20
2018-03-21T22:12:34.928Z,16.80
2018-03-21T22:15:01.193Z,15.07
2018-03-21T22:17:27.407Z,15.25
2018-03-21T22:19:53.614Z,17.27
2018-03-21T22:22:20.607Z,15.45
2018-03-21T22:24:46.848Z,16.70
2018-03-21T22:27:13.098Z,15.95
2018-03-21T22:29:41.063Z,14.98
2018-03-21T22:32:07.253Z,17.80
2018-03-21T22:34:33.475Z,17.30
2018-03-21T22:36:59.775Z,16.35
2018-03-21T22:39:26.312Z,17.02
2018-03-21T22:41:52.536Z,16.60
2018-03-21T22:44:18.786Z,17.80
2018-03-21T22:46:45.004Z,17.95
2018-03-21T22:49:11.230Z,17.77
2018-03-21T22:51:39.446Z,18.25
2018-03-21T22:54:05.854Z,17.27
2018-03-21T22:56:32.142Z,17.17
2018-03-21T22:58:58.331Z,18.27
2018-03-21T23:01:24.544Z,16.95
2018-03-21T23:03:51.052Z,16.48
2018-03-21T23:06:18.026Z,16.30
2018-03-21T23:08:45.095Z,16.45
2018-03-21T23:11:11.344Z,17.87
2018-03-21T23:13:38.438Z,16.95
2018-03-21T23:16:05.571Z,17.90
2018-03-21T23:18:32.559Z,16.27
2018-03-21T23:20:58.772Z,15.70
2018-03-21T23:23:24.981Z,16.67
2018-03-21T23:25:51.930Z,15.63
2018-03-21T23:28:18.938Z,17.67
2018-03-21T23:30:45.139Z,17.05
2018-03-21T23:33:11.395Z,15.77
2018-03-21T23:35:37.911Z,16.98
2018-03-21T23:38:06.240Z,16.42
2018-03-21T23:40:33.186Z,18.48
2018-03-21T23:43:00.163Z,17.17
2018-03-21T23:45:28.726Z,17.98
2018-03-21T23:47:54.993Z,16.45
2018-03-21T23:50:21.699Z,17.27
2018-03-21T23:52:49.962Z,17.58
2018-03-21T23:55:16.332Z,19.02
2018-03-21T23:57:43.414Z,17.98
